Headlee Ranch, South Dakota
Current Conditions -  °F | °C
As of 4:55 AM on Saturday 25 Oct 2014 (Local Time) from KPHP Reporting Station
Clear Clear  
Wind Chill: 29°   Ceiling: Unl
Heat Index: 35°   Visibility: 10mi
Dew Point: 31°   Wind: 7mph
Humidity: 85%   Direction: 270°W
Pressure: 30.14"   Gusts: NA
Location:  43.7587°N, 101.898°W
Report Text: KPHP 251055Z AUTO 27006KT 10SM CLR 02/M01 A3014 RMK AO2 SLP204 T00171006
Loading
Personal Weather Stations






























Interactive Weather Map
Tropical Storm Tracking
New forecast layout! Learn more

10-Day Weather Forecast

Advertisements
Track Severe Weather on mobile